createdAt,value
2023-04-01T00:00:57.575Z,14.70
2023-04-01T00:03:28.453Z,15.50
2023-04-01T00:05:58.546Z,16.90
2023-04-01T00:08:27.885Z,16.50
2023-04-01T00:10:56.882Z,18.70
2023-04-01T00:13:27.420Z,18.20
2023-04-01T00:15:57.571Z,16.30
2023-04-01T00:18:26.785Z,13.70
2023-04-01T00:20:54.980Z,15.70
2023-04-01T00:23:23.229Z,13.90
2023-04-01T00:25:51.765Z,13.40
2023-04-01T00:28:21.448Z,11.50
2023-04-01T00:30:49.903Z,12.90
2023-04-01T00:33:18.476Z,12.90
2023-04-01T00:35:47.315Z,12.70
2023-04-01T00:38:15.746Z,11.40
2023-04-01T00:40:47.246Z,11.00
2023-04-01T00:43:21.582Z,9.80
2023-04-01T00:45:50.915Z,11.40
2023-04-01T00:48:27.169Z,11.80
2023-04-01T00:51:03.800Z,11.40
2023-04-01T00:53:34.207Z,10.60
2023-04-01T00:56:08.384Z,10.80
2023-04-01T00:58:44.952Z,10.10
2023-04-01T01:01:13.447Z,10.00
2023-04-01T01:03:41.752Z,9.80
2023-04-01T01:06:23.192Z,9.40
2023-04-01T01:09:13.147Z,10.60
2023-04-01T01:14:28.988Z,7.10
2023-04-01T01:17:24.149Z,8.50
2023-04-01T01:20:39.976Z,7.50
2023-04-01T01:23:14.076Z,9.30
2023-04-01T01:26:07.650Z,6.50
2023-04-01T01:29:13.230Z,7.70
2023-04-01T01:32:16.272Z,7.80
2023-04-01T01:35:29.708Z,7.80
2023-04-01T01:38:12.594Z,6.20
2023-04-01T01:40:44.977Z,9.50
2023-04-01T01:43:17.915Z,9.70
2023-04-01T01:45:52.064Z,7.10
2023-04-01T01:48:21.115Z,7.00
2023-04-01T01:50:50.946Z,7.70
2023-04-01T01:53:19.693Z,6.30
2023-04-01T01:55:49.150Z,6.40
2023-04-01T01:58:48.972Z,8.40
2023-04-01T02:01:29.105Z,6.80
2023-04-01T02:03:59.654Z,6.40
2023-04-01T02:06:31.773Z,7.80
2023-04-01T02:09:11.780Z,8.20
2023-04-01T02:14:44.762Z,7.00
2023-04-01T02:17:19.306Z,5.90
2023-04-01T02:19:53.405Z,8.70
2023-04-01T02:22:26.112Z,9.80
2023-04-01T02:24:59.308Z,8.20
2023-04-01T02:27:28.260Z,6.70
2023-04-01T02:29:56.577Z,8.50
2023-04-01T02:32:26.628Z,6.70
2023-04-01T02:34:55.691Z,6.60
2023-04-01T02:37:24.688Z,5.10
2023-04-01T02:39:52.908Z,7.80
2023-04-01T02:42:21.238Z,7.00
2023-04-01T02:44:49.557Z,6.00
2023-04-01T02:47:17.788Z,6.90
2023-04-01T02:49:46.043Z,6.80
2023-04-01T02:52:14.275Z,8.00
2023-04-01T02:54:42.467Z,7.20
2023-04-01T02:57:10.754Z,9.10
2023-04-01T02:59:39.054Z,7.80
2023-04-01T03:02:08.171Z,6.50
2023-04-01T03:04:36.644Z,8.00
2023-04-01T03:07:05.041Z,8.10
2023-04-01T03:09:34.098Z,7.00
2023-04-01T03:12:02.316Z,7.40
2023-04-01T03:14:30.660Z,6.90
2023-04-01T03:16:58.980Z,6.60
2023-04-01T03:19:27.292Z,6.90
2023-04-01T03:21:55.640Z,7.90
2023-04-01T03:24:23.876Z,6.70
2023-04-01T03:26:52.124Z,6.80
2023-04-01T03:29:20.477Z,6.80
2023-04-01T03:31:48.660Z,7.10
2023-04-01T03:34:16.916Z,7.20
2023-04-01T03:36:45.419Z,6.90
2023-04-01T03:39:13.701Z,6.60
2023-04-01T03:41:41.894Z,7.90
2023-04-01T03:44:10.136Z,7.10
2023-04-01T03:46:38.519Z,5.40
2023-04-01T03:49:14.044Z,6.10
2023-04-01T03:51:44.104Z,5.50
2023-04-01T03:56:40.571Z,5.50
2023-04-01T03:59:09.822Z,6.80
2023-04-01T04:01:38.072Z,6.00
2023-04-01T04:04:06.859Z,4.90
2023-04-01T04:06:35.482Z,5.90
2023-04-01T04:09:03.823Z,6.90
2023-04-01T04:11:33.844Z,5.20
2023-04-01T04:14:04.062Z,5.40
2023-04-01T04:16:32.596Z,5.90
2023-04-01T04:19:01.103Z,6.40
2023-04-01T04:21:29.405Z,6.30
2023-04-01T04:23:57.623Z,5.50
2023-04-01T04:26:26.950Z,5.10
2023-04-01T04:28:56.551Z,5.30
2023-04-01T04:31:26.466Z,6.00
2023-04-01T04:36:24.223Z,5.80
2023-04-01T04:38:52.631Z,5.40
2023-04-01T04:41:23.292Z,5.00
2023-04-01T04:43:59.803Z,4.00
2023-04-01T04:46:28.145Z,4.70
2023-04-01T04:48:56.603Z,5.00
2023-04-01T04:51:24.995Z,4.90
2023-04-01T04:53:53.390Z,5.50
2023-04-01T04:56:22.896Z,4.80
2023-04-01T04:58:51.189Z,5.90
2023-04-01T05:01:20.201Z,7.00
2023-04-01T05:03:48.815Z,5.10
2023-04-01T05:06:17.965Z,7.00
2023-04-01T05:08:46.606Z,6.70
2023-04-01T05:11:19.864Z,4.90
2023-04-01T05:13:49.087Z,5.50
2023-04-01T05:16:20.577Z,5.70
2023-04-01T05:18:49.224Z,5.80
2023-04-01T05:21:17.510Z,5.90
2023-04-01T05:23:45.802Z,5.00
2023-04-01T05:26:15.956Z,6.40
2023-04-01T05:28:44.109Z,7.40
2023-04-01T05:31:12.852Z,4.50
2023-04-01T05:33:41.253Z,6.60
2023-04-01T05:36:17.365Z,6.60
2023-04-01T05:38:47.329Z,5.80
2023-04-01T05:41:16.586Z,6.10
2023-04-01T05:43:45.211Z,7.40
2023-04-01T05:46:13.566Z,7.90
2023-04-01T05:48:41.883Z,7.30
2023-04-01T05:51:17.314Z,7.40
2023-04-01T05:53:45.655Z,6.50
2023-04-01T05:56:14.068Z,5.30
2023-04-01T05:58:42.299Z,5.00
2023-04-01T06:01:16.246Z,5.90
2023-04-01T06:03:45.151Z,5.80
2023-04-01T06:06:24.523Z,5.90
2023-04-01T06:08:54.246Z,4.30
2023-04-01T06:11:34.678Z,5.40
2023-04-01T06:14:08.976Z,5.10
2023-04-01T06:16:58.995Z,4.50
2023-04-01T06:20:04.550Z,5.50
2023-04-01T06:23:11.229Z,5.50
2023-04-01T06:25:55.410Z,7.10
2023-04-01T06:28:57.898Z,7.00
2023-04-01T06:31:41.332Z,5.80
2023-04-01T06:34:31.280Z,7.80
2023-04-01T06:39:49.122Z,6.10
2023-04-01T06:42:37.831Z,7.50
2023-04-01T06:45:27.861Z,8.30
2023-04-01T06:48:19.029Z,5.90
2023-04-01T06:51:20.684Z,6.50
2023-04-01T06:53:59.045Z,6.80
2023-04-01T06:56:29.676Z,6.20
2023-04-01T06:59:11.359Z,7.60
2023-04-01T07:01:43.967Z,5.60
2023-04-01T07:05:15.963Z,5.70
2023-04-01T07:09:06.295Z,4.00
2023-04-01T07:16:27.926Z,4.70
2023-04-01T07:20:23.681Z,2.80
2023-04-01T07:24:15.995Z,3.70
2023-04-01T07:28:05.568Z,2.80
2023-04-01T07:31:53.203Z,3.00
2023-04-01T07:35:51.361Z,3.20
2023-04-01T07:43:37.677Z,2.80
2023-04-01T07:47:28.772Z,2.60
2023-04-01T07:51:36.554Z,5.40
2023-04-01T07:55:28.702Z,2.50
2023-04-01T07:59:22.915Z,23.90
2023-04-01T08:03:36.931Z,4.50
2023-04-01T08:07:40.993Z,6.10
2023-04-01T08:11:40.237Z,8.90
2023-04-01T08:15:43.492Z,10.50
2023-04-01T08:19:44.517Z,4.70
2023-04-01T08:23:38.684Z,2.50
2023-04-01T08:27:31.291Z,3.00
2023-04-01T08:31:29.537Z,5.50
2023-04-01T08:35:19.003Z,2.60
2023-04-01T08:39:08.410Z,2.40
2023-04-01T08:43:03.380Z,3.90
2023-04-01T08:47:07.612Z,4.20
2023-04-01T08:51:01.480Z,2.80
2023-04-01T08:54:53.481Z,2.70
2023-04-01T09:06:48.363Z,2.90
2023-04-01T09:10:42.383Z,2.80
2023-04-01T09:15:15.161Z,3.80
2023-04-01T09:19:20.499Z,2.70
2023-04-01T09:23:27.733Z,2.70
2023-04-01T09:27:16.385Z,3.10
2023-04-01T09:31:15.141Z,3.70
2023-04-01T09:35:11.865Z,5.10
2023-04-01T09:39:10.319Z,4.20
2023-04-01T09:43:05.793Z,5.00
2023-04-01T09:47:00.128Z,4.70
2023-04-01T09:50:48.169Z,4.10
2023-04-01T09:54:46.207Z,6.00
2023-04-01T09:58:46.377Z,4.30
2023-04-01T10:02:35.568Z,5.70
2023-04-01T10:06:23.830Z,4.50
2023-04-01T10:10:40.536Z,8.30
2023-04-01T10:14:28.407Z,8.20
2023-04-01T10:18:26.834Z,6.00
2023-04-01T10:22:28.020Z,4.90
2023-04-01T10:26:32.334Z,7.10
2023-04-01T10:30:39.047Z,9.40
2023-04-01T10:34:26.049Z,4.40
2023-04-01T10:38:34.646Z,5.30
2023-04-01T10:41:34.954Z,4.60
2023-04-01T10:44:30.637Z,5.00
2023-04-01T10:47:16.970Z,4.80
2023-04-01T10:49:58.088Z,4.40
2023-04-01T10:53:07.364Z,4.40
2023-04-01T10:56:03.722Z,3.60
2023-04-01T10:58:47.452Z,8.10
2023-04-01T11:01:31.051Z,5.40
2023-04-01T11:04:19.577Z,3.60
2023-04-01T11:07:15.696Z,4.00
2023-04-01T11:10:21.852Z,3.70
2023-04-01T11:13:12.191Z,4.70
2023-04-01T11:16:18.659Z,7.00
2023-04-01T11:18:54.184Z,6.70
2023-04-01T11:21:34.797Z,12.70
2023-04-01T11:24:21.375Z,5.80
2023-04-01T11:27:03.383Z,9.20
2023-04-01T11:29:40.521Z,3.90
2023-04-01T11:32:36.952Z,3.70
2023-04-01T11:35:18.326Z,3.90
2023-04-01T11:38:14.682Z,9.40
2023-04-01T11:41:03.571Z,7.10
2023-04-01T11:43:41.288Z,4.70
2023-04-01T11:46:28.976Z,5.90
2023-04-01T11:49:15.863Z,9.40
2023-04-01T11:52:07.119Z,4.30
2023-04-01T11:54:38.352Z,9.30
2023-04-01T11:57:31.944Z,4.50
2023-04-01T12:00:19.400Z,5.10
2023-04-01T12:02:53.950Z,2.90
2023-04-01T12:05:49.575Z,4.20
2023-04-01T12:08:25.737Z,2.60
2023-04-01T12:11:03.083Z,6.40
2023-04-01T12:13:46.889Z,4.00
2023-04-01T12:16:24.285Z,3.80
2023-04-01T12:19:37.836Z,6.20
2023-04-01T12:22:21.051Z,5.80
2023-04-01T12:24:56.312Z,4.90
2023-04-01T12:27:45.226Z,6.90
2023-04-01T12:30:23.040Z,15.20
2023-04-01T12:33:07.094Z,15.30
2023-04-01T12:36:06.079Z,7.50
2023-04-01T12:38:52.787Z,8.10
2023-04-01T12:42:04.330Z,3.80
2023-04-01T12:44:35.533Z,4.30
2023-04-01T12:47:18.068Z,5.50
2023-04-01T12:50:05.083Z,3.40
2023-04-01T12:52:46.158Z,3.00
2023-04-01T12:55:42.288Z,7.30
2023-04-01T12:58:18.298Z,3.10
2023-04-01T13:01:04.558Z,4.80
2023-04-01T13:03:42.307Z,3.60
2023-04-01T13:06:49.886Z,3.10
2023-04-01T13:09:30.030Z,3.40
2023-04-01T13:12:27.660Z,5.20
2023-04-01T13:15:31.995Z,5.00
2023-04-01T13:18:28.556Z,5.40
2023-04-01T13:21:18.382Z,5.90
2023-04-01T13:24:25.727Z,4.20
2023-04-01T13:27:05.035Z,6.20
2023-04-01T13:30:09.208Z,5.40
2023-04-01T13:32:52.929Z,7.50
2023-04-01T13:35:36.913Z,4.70
2023-04-01T13:38:26.431Z,5.80
2023-04-01T13:41:03.881Z,6.80
2023-04-01T13:43:38.316Z,4.90
2023-04-01T13:46:19.568Z,6.90
2023-04-01T13:49:09.029Z,6.20
2023-04-01T13:51:40.084Z,6.30
2023-04-01T13:54:27.456Z,6.00
2023-04-01T13:57:30.789Z,6.60
2023-04-01T14:00:36.655Z,10.50
2023-04-01T14:03:41.203Z,11.90
2023-04-01T14:06:28.959Z,7.00
2023-04-01T14:09:34.810Z,6.80
2023-04-01T14:12:11.892Z,5.20
2023-04-01T14:15:17.176Z,8.40
2023-04-01T14:18:10.418Z,7.80
2023-04-01T14:20:52.945Z,6.80
2023-04-01T14:23:36.054Z,6.20
2023-04-01T14:26:26.979Z,5.20
2023-04-01T14:29:24.407Z,5.40
2023-04-01T14:32:13.071Z,8.00
2023-04-01T14:35:07.266Z,11.60
2023-04-01T14:37:59.366Z,10.70
2023-04-01T14:40:29.761Z,10.10
2023-04-01T14:43:22.823Z,7.90
2023-04-01T14:46:00.195Z,7.00
2023-04-01T14:48:36.393Z,7.90
2023-04-01T14:51:16.888Z,9.30
2023-04-01T14:53:58.547Z,7.30
2023-04-01T14:56:41.742Z,8.10
2023-04-01T14:59:18.772Z,10.90
2023-04-01T15:02:04.988Z,10.30
2023-04-01T15:04:39.601Z,9.30
2023-04-01T15:07:20.546Z,9.40
2023-04-01T15:09:49.015Z,9.90
2023-04-01T15:12:24.594Z,8.20
2023-04-01T15:15:12.786Z,8.30
2023-04-01T15:17:43.942Z,7.60
2023-04-01T15:20:27.444Z,11.10
2023-04-01T15:23:34.487Z,8.00
2023-04-01T15:26:08.803Z,8.30
2023-04-01T15:28:42.529Z,8.80
2023-04-01T15:31:20.300Z,7.10
2023-04-01T15:33:55.258Z,37.60
2023-04-01T15:36:29.467Z,21.10
2023-04-01T15:39:09.908Z,20.70
2023-04-01T15:41:47.768Z,19.70
2023-04-01T15:44:48.955Z,14.90
2023-04-01T15:47:26.836Z,10.50
2023-04-01T15:50:22.498Z,13.50
2023-04-01T15:53:12.525Z,10.20
2023-04-01T15:55:46.501Z,11.70
2023-04-01T15:58:25.421Z,12.40
2023-04-01T16:01:22.547Z,11.00
2023-04-01T16:04:17.898Z,11.50
2023-04-01T16:06:52.079Z,9.40
2023-04-01T16:09:21.036Z,13.40
2023-04-01T16:12:25.226Z,10.00
2023-04-01T16:15:21.196Z,8.00
2023-04-01T16:17:52.701Z,9.40
2023-04-01T16:20:27.825Z,8.90
2023-04-01T16:23:21.945Z,8.20
2023-04-01T16:26:09.626Z,10.80
2023-04-01T16:29:16.396Z,10.30
2023-04-01T16:31:53.325Z,9.00
2023-04-01T16:35:05.158Z,9.00
2023-04-01T16:37:43.104Z,10.00
2023-04-01T16:40:42.967Z,10.20
2023-04-01T16:43:11.390Z,10.80
2023-04-01T16:45:48.760Z,10.60
2023-04-01T16:48:24.039Z,9.10
2023-04-01T16:51:12.963Z,11.00
2023-04-01T16:54:19.436Z,11.00
2023-04-01T16:57:06.416Z,7.40
2023-04-01T16:59:40.256Z,9.00
2023-04-01T17:02:08.641Z,8.50
2023-04-01T17:04:49.232Z,8.10
2023-04-01T17:07:49.522Z,6.90
2023-04-01T17:10:21.594Z,9.20
2023-04-01T17:13:08.319Z,6.80
2023-04-01T17:15:48.169Z,7.40
2023-04-01T17:18:25.874Z,8.30
2023-04-01T17:21:00.557Z,6.70
2023-04-01T17:23:46.903Z,10.00
2023-04-01T17:26:43.597Z,7.80
2023-04-01T17:29:32.484Z,9.50
2023-04-01T17:32:07.033Z,9.90
2023-04-01T17:34:52.255Z,10.10
2023-04-01T17:37:35.826Z,8.70
2023-04-01T17:40:31.273Z,10.30
2023-04-01T17:43:02.209Z,7.90
2023-04-01T17:45:33.194Z,9.40
2023-04-01T17:48:23.895Z,7.10
2023-04-01T17:51:21.801Z,5.90
2023-04-01T17:54:24.188Z,6.20
2023-04-01T17:57:17.494Z,8.50
2023-04-01T18:00:30.097Z,7.60
2023-04-01T18:03:12.783Z,8.80
2023-04-01T18:06:13.220Z,7.50
2023-04-01T18:09:06.517Z,6.70
2023-04-01T18:11:40.402Z,6.00
2023-04-01T18:14:30.323Z,6.50
2023-04-01T18:17:07.738Z,9.50
2023-04-01T18:19:42.262Z,6.40
2023-04-01T18:22:43.055Z,8.20
2023-04-01T18:25:35.024Z,8.70
2023-04-01T18:28:31.555Z,12.10
2023-04-01T18:31:02.858Z,12.30
2023-04-01T18:33:36.208Z,9.20
2023-04-01T18:36:22.994Z,6.30
2023-04-01T18:39:04.414Z,7.40
2023-04-01T18:42:08.240Z,7.70
2023-04-01T18:44:48.934Z,8.10
2023-04-01T18:47:27.125Z,10.10
2023-04-01T18:50:08.885Z,5.70
2023-04-01T18:52:42.968Z,4.90
2023-04-01T18:55:36.426Z,7.00
2023-04-01T18:58:20.377Z,8.40
2023-04-01T19:01:06.863Z,9.50
2023-04-01T19:04:03.036Z,6.50
2023-04-01T19:06:56.099Z,5.90
2023-04-01T19:09:29.488Z,7.40
2023-04-01T19:12:07.196Z,6.80
2023-04-01T19:15:10.168Z,8.10
2023-04-01T19:18:07.884Z,7.20
2023-04-01T19:20:44.841Z,5.60
2023-04-01T19:23:32.831Z,6.00
2023-04-01T19:26:15.188Z,8.70
2023-04-01T19:28:54.991Z,6.10
2023-04-01T19:31:50.968Z,6.30
2023-04-01T19:34:44.137Z,5.60
2023-04-01T19:37:56.966Z,6.70
2023-04-01T19:40:31.286Z,7.10
2023-04-01T19:43:23.020Z,5.10
2023-04-01T19:46:21.561Z,6.30
2023-04-01T19:49:05.458Z,3.80
2023-04-01T19:51:42.884Z,7.00
2023-04-01T19:54:44.983Z,5.70
2023-04-01T19:57:48.145Z,6.50
2023-04-01T20:00:37.634Z,6.70
2023-04-01T20:03:22.005Z,6.60
2023-04-01T20:06:13.148Z,4.50
2023-04-01T20:08:43.983Z,7.20
2023-04-01T20:11:30.720Z,6.80
2023-04-01T20:14:22.943Z,4.70
2023-04-01T20:16:59.996Z,4.50
2023-04-01T20:19:52.838Z,4.40
2023-04-01T20:22:29.588Z,6.90
2023-04-01T20:25:12.051Z,3.10
2023-04-01T20:27:53.195Z,7.60
2023-04-01T20:30:29.263Z,4.20
2023-04-01T20:33:03.654Z,5.30
2023-04-01T20:35:42.895Z,5.60
2023-04-01T20:38:32.814Z,3.90
2023-04-01T20:43:29.948Z,5.20
2023-04-01T20:46:08.123Z,4.70
2023-04-01T20:48:59.360Z,4.90
2023-04-01T20:51:35.889Z,3.80
2023-04-01T20:54:28.129Z,5.60
2023-04-01T20:57:06.995Z,3.60
2023-04-01T21:00:09.317Z,5.30
2023-04-01T21:03:15.792Z,4.00
2023-04-01T21:05:57.197Z,3.00
2023-04-01T21:08:43.860Z,7.20
2023-04-01T21:11:47.263Z,7.70
2023-04-01T21:14:49.662Z,5.00
2023-04-01T21:17:36.765Z,5.50
2023-04-01T21:20:45.309Z,6.60
2023-04-01T21:23:22.310Z,5.10
2023-04-01T21:26:29.641Z,3.40
2023-04-01T21:29:20.257Z,5.10
2023-04-01T21:32:34.695Z,2.20
2023-04-01T21:35:25.279Z,5.60
2023-04-01T21:38:08.674Z,2.80
2023-04-01T21:40:37.105Z,4.40
2023-04-01T21:43:25.188Z,6.10
2023-04-01T21:46:12.675Z,5.60
2023-04-01T21:48:59.668Z,4.10
2023-04-01T21:51:52.619Z,4.80
2023-04-01T21:54:45.771Z,4.70
2023-04-01T21:57:29.212Z,4.20
2023-04-01T22:00:19.803Z,6.20
2023-04-01T22:03:24.016Z,2.90
2023-04-01T22:06:12.333Z,8.50
2023-04-01T22:09:09.596Z,3.60
2023-04-01T22:12:07.000Z,5.00
2023-04-01T22:15:07.812Z,3.70
2023-04-01T22:17:56.542Z,3.70
2023-04-01T22:20:40.017Z,1.50
2023-04-01T22:23:26.769Z,3.00
2023-04-01T22:25:56.084Z,4.10
2023-04-01T22:29:01.247Z,4.90
2023-04-01T22:32:01.623Z,4.30
2023-04-01T22:34:49.039Z,3.90
2023-04-01T22:37:33.417Z,5.00
2023-04-01T22:40:47.348Z,3.60
2023-04-01T22:43:39.445Z,5.50
2023-04-01T22:46:50.839Z,5.20
2023-04-01T22:49:34.036Z,3.50
2023-04-01T22:52:31.463Z,5.30
2023-04-01T22:55:05.713Z,3.60
2023-04-01T22:57:43.355Z,4.00
2023-04-01T23:00:29.908Z,4.90
2023-04-01T23:03:13.232Z,6.40
2023-04-01T23:05:48.654Z,5.70
2023-04-01T23:08:51.726Z,5.30
2023-04-01T23:11:26.988Z,8.30
2023-04-01T23:13:57.774Z,4.50
2023-04-01T23:16:48.895Z,4.20
2023-04-01T23:19:36.224Z,4.60
2023-04-01T23:22:37.176Z,2.40
2023-04-01T23:25:25.236Z,4.00
2023-04-01T23:28:18.337Z,2.40
2023-04-01T23:30:46.646Z,3.40
2023-04-01T23:33:20.883Z,3.60
2023-04-01T23:36:09.095Z,4.90
2023-04-01T23:38:42.546Z,4.40
2023-04-01T23:41:21.617Z,2.10
2023-04-01T23:44:14.755Z,3.30
2023-04-01T23:46:47.582Z,1.70
2023-04-01T23:49:21.652Z,4.30
2023-04-01T23:51:57.954Z,2.40
2023-04-01T23:54:43.290Z,3.10
2023-04-01T23:57:20.940Z,5.50
